createdAt,value
2022-08-17T00:00:58.603Z,22.34
2022-08-17T00:06:24.506Z,22.30
2022-08-17T00:12:40.660Z,22.26
2022-08-17T00:17:30.468Z,22.36
2022-08-17T00:23:06.191Z,22.19
2022-08-17T00:28:28.027Z,22.08
2022-08-17T00:33:55.449Z,22.08
2022-08-17T00:39:17.280Z,22.06
2022-08-17T00:44:39.115Z,22.06
2022-08-17T00:50:01.067Z,21.96
2022-08-17T00:55:25.281Z,21.91
2022-08-17T01:00:48.110Z,21.70
2022-08-17T01:06:10.517Z,21.72
2022-08-17T01:11:32.684Z,21.68
2022-08-17T01:16:56.322Z,21.57
2022-08-17T01:22:26.439Z,21.41
2022-08-17T01:27:49.193Z,21.45
2022-08-17T01:33:11.071Z,21.43
2022-08-17T01:38:34.479Z,21.45
2022-08-17T01:44:05.231Z,21.48
2022-08-17T01:49:27.065Z,21.51
2022-08-17T01:54:51.179Z,21.56
2022-08-17T02:00:14.121Z,21.52
2022-08-17T02:05:36.407Z,21.36
2022-08-17T02:10:58.350Z,21.22
2022-08-17T02:16:20.208Z,21.34
2022-08-17T02:21:46.122Z,21.45
2022-08-17T02:27:07.983Z,21.45
2022-08-17T02:32:29.773Z,21.28
2022-08-17T02:37:51.859Z,21.12
2022-08-17T02:43:17.811Z,20.94
2022-08-17T02:48:39.672Z,20.87
2022-08-17T02:54:38.941Z,20.81
2022-08-17T02:59:48.368Z,20.94
2022-08-17T03:05:13.358Z,20.95
2022-08-17T03:10:35.278Z,20.89
2022-08-17T03:15:57.106Z,20.71
2022-08-17T03:21:18.926Z,20.78
2022-08-17T03:26:40.911Z,20.69
2022-08-17T03:32:12.186Z,20.82
2022-08-17T03:37:34.054Z,20.91
2022-08-17T03:42:55.954Z,20.84
2022-08-17T03:48:17.797Z,21.01
2022-08-17T03:53:51.888Z,21.34
2022-08-17T03:59:21.195Z,21.82
2022-08-17T04:04:44.437Z,22.33
2022-08-17T04:10:06.851Z,23.09
2022-08-17T04:15:29.494Z,23.27
2022-08-17T04:20:51.359Z,23.88
2022-08-17T04:26:53.196Z,24.13
2022-08-17T04:31:55.739Z,25.98
2022-08-17T04:37:17.570Z,28.23
2022-08-17T04:42:39.401Z,29.31
2022-08-17T04:48:01.422Z,29.29
2022-08-17T04:53:23.258Z,28.66
2022-08-17T04:58:47.738Z,28.04
2022-08-17T05:04:33.537Z,28.43
2022-08-17T05:09:56.592Z,29.84
2022-08-17T05:15:18.531Z,30.50
2022-08-17T05:20:41.771Z,32.37
2022-08-17T05:26:04.411Z,32.29
2022-08-17T05:31:30.477Z,27.32
2022-08-17T05:36:52.291Z,27.91
2022-08-17T05:42:19.010Z,27.51
2022-08-17T05:47:42.734Z,30.49
2022-08-17T05:53:24.790Z,33.74
2022-08-17T05:58:54.727Z,34.83
2022-08-17T06:04:41.148Z,35.65
2022-08-17T06:10:12.483Z,37.38
2022-08-17T06:16:04.537Z,38.69
2022-08-17T06:21:50.952Z,39.33
2022-08-17T06:27:38.826Z,38.62
2022-08-17T06:33:07.557Z,39.34
2022-08-17T06:39:05.897Z,39.06
2022-08-17T06:44:43.284Z,39.91
2022-08-17T06:50:22.016Z,42.52
2022-08-17T06:55:49.248Z,41.27
2022-08-17T07:01:16.829Z,37.43
2022-08-17T07:07:00.979Z,35.61
2022-08-17T07:12:27.866Z,34.90
2022-08-17T07:17:50.051Z,36.84
2022-08-17T07:23:11.814Z,37.45
2022-08-17T07:28:35.450Z,34.11
2022-08-17T07:34:06.047Z,35.54
2022-08-17T07:39:28.031Z,38.65
2022-08-17T07:44:54.509Z,38.63
2022-08-17T07:50:28.854Z,39.51
2022-08-17T07:55:53.153Z,41.15
2022-08-17T08:01:15.482Z,40.92
2022-08-17T08:06:49.643Z,39.22
2022-08-17T08:12:24.181Z,39.25
2022-08-17T08:17:57.015Z,40.61
2022-08-17T08:23:37.108Z,41.05
2022-08-17T08:29:17.959Z,35.98
2022-08-17T08:35:04.384Z,36.04
2022-08-17T08:40:38.112Z,35.84
2022-08-17T08:46:14.840Z,33.51
2022-08-17T08:51:56.678Z,31.67
2022-08-17T08:57:40.220Z,32.08
2022-08-17T09:03:08.014Z,33.24
2022-08-17T09:08:46.712Z,32.02
2022-08-17T09:14:45.383Z,29.98
2022-08-17T09:20:28.137Z,32.51
2022-08-17T09:26:26.930Z,32.03
2022-08-17T09:31:58.148Z,31.67
2022-08-17T09:37:49.094Z,31.52
2022-08-17T09:43:37.929Z,32.22
2022-08-17T09:49:08.205Z,32.39
2022-08-17T09:54:40.830Z,31.42
2022-08-17T10:00:14.477Z,32.14
2022-08-17T10:05:43.651Z,30.87
2022-08-17T10:11:33.890Z,31.48
2022-08-17T10:17:02.866Z,30.92
2022-08-17T10:22:53.044Z,31.37
2022-08-17T10:28:22.823Z,31.78
2022-08-17T10:33:57.475Z,31.74
2022-08-17T10:39:30.655Z,30.93
2022-08-17T10:45:01.299Z,30.33
2022-08-17T10:50:55.367Z,29.78
2022-08-17T10:56:19.673Z,30.03
2022-08-17T11:02:04.089Z,30.59
2022-08-17T11:07:56.453Z,31.57
2022-08-17T11:13:38.444Z,31.96
2022-08-17T11:19:30.528Z,32.11
2022-08-17T11:24:54.103Z,31.44
2022-08-17T11:30:44.392Z,31.82
2022-08-17T11:36:30.727Z,32.06
2022-08-17T11:42:10.494Z,31.45
2022-08-17T11:47:57.000Z,31.83
2022-08-17T11:53:37.896Z,31.98
2022-08-17T11:59:00.188Z,31.33
2022-08-17T12:04:22.017Z,30.95
2022-08-17T12:09:48.634Z,31.22
2022-08-17T12:15:28.807Z,30.51
2022-08-17T12:21:21.390Z,31.02
2022-08-17T12:26:52.477Z,31.26
2022-08-17T12:32:17.747Z,31.64
2022-08-17T12:37:47.127Z,31.12
2022-08-17T12:43:21.283Z,31.16
2022-08-17T12:48:59.280Z,30.84
2022-08-17T12:54:27.930Z,30.06
2022-08-17T12:59:54.037Z,30.27
2022-08-17T13:05:23.856Z,30.75
2022-08-17T13:11:03.631Z,30.44
2022-08-17T13:16:31.172Z,30.40
2022-08-17T13:21:55.838Z,31.10
2022-08-17T13:27:20.306Z,30.93
2022-08-17T13:32:45.683Z,31.06
2022-08-17T13:38:11.824Z,31.11
2022-08-17T13:43:39.141Z,30.66
2022-08-17T13:49:09.714Z,30.18
2022-08-17T13:54:37.525Z,29.70
2022-08-17T14:00:17.445Z,29.30
2022-08-17T14:05:39.617Z,29.31
2022-08-17T14:11:01.490Z,29.49
2022-08-17T14:16:23.351Z,30.07
2022-08-17T14:21:46.567Z,30.20
2022-08-17T14:27:08.736Z,29.97
2022-08-17T14:32:34.687Z,29.85
2022-08-17T14:37:56.909Z,30.04
2022-08-17T14:43:19.061Z,30.09
2022-08-17T14:48:40.898Z,30.32
2022-08-17T14:54:02.912Z,30.73
2022-08-17T14:59:24.783Z,30.62
2022-08-17T15:04:46.569Z,30.89
2022-08-17T15:10:08.777Z,30.73
2022-08-17T15:15:31.262Z,30.75
2022-08-17T15:20:53.573Z,30.92
2022-08-17T15:26:15.408Z,31.01
2022-08-17T15:31:37.362Z,30.77
2022-08-17T15:36:59.173Z,30.58
2022-08-17T15:42:22.457Z,30.00
2022-08-17T15:47:44.346Z,29.67
2022-08-17T15:53:06.232Z,29.58
2022-08-17T15:58:29.974Z,29.04
2022-08-17T16:04:04.559Z,28.57
2022-08-17T16:09:29.216Z,28.36
2022-08-17T16:14:51.435Z,28.23
2022-08-17T16:20:20.625Z,28.27
2022-08-17T16:25:53.236Z,28.08
2022-08-17T16:31:16.075Z,28.18
2022-08-17T16:36:37.930Z,27.85
2022-08-17T16:41:59.865Z,27.48
2022-08-17T16:47:21.686Z,27.74
2022-08-17T16:52:44.371Z,27.52
2022-08-17T16:58:07.135Z,27.46
2022-08-17T17:03:31.104Z,27.57
2022-08-17T17:08:59.690Z,27.51
2022-08-17T17:14:29.890Z,27.30
2022-08-17T17:20:02.832Z,27.04
2022-08-17T17:25:52.137Z,27.02
2022-08-17T17:31:16.631Z,26.80
2022-08-17T17:36:49.820Z,26.85
2022-08-17T17:42:19.961Z,26.61
2022-08-17T17:47:42.529Z,26.44
2022-08-17T17:53:09.269Z,26.30
2022-08-17T17:59:01.505Z,25.88
2022-08-17T18:04:45.168Z,25.90
2022-08-17T18:10:30.230Z,25.88
2022-08-17T18:15:53.644Z,25.76
2022-08-17T18:21:19.652Z,25.73
2022-08-17T18:26:55.461Z,25.28
2022-08-17T18:32:25.748Z,25.65
2022-08-17T18:37:52.242Z,25.56
2022-08-17T18:43:27.468Z,25.56
2022-08-17T18:49:05.629Z,25.55
2022-08-17T18:54:27.526Z,25.55
2022-08-17T18:59:49.631Z,25.48
2022-08-17T19:05:29.946Z,25.36
2022-08-17T19:11:10.014Z,25.12
2022-08-17T19:16:46.065Z,24.99
2022-08-17T19:22:29.252Z,24.91
2022-08-17T19:28:27.550Z,24.64
2022-08-17T19:33:50.351Z,24.65
2022-08-17T19:39:38.163Z,24.67
2022-08-17T19:45:08.288Z,24.52
2022-08-17T19:50:45.075Z,24.59
2022-08-17T19:56:26.737Z,24.46
2022-08-17T20:01:53.202Z,24.37
2022-08-17T20:07:19.999Z,24.36
2022-08-17T20:12:43.708Z,24.38
2022-08-17T20:18:14.050Z,24.34
2022-08-17T20:23:52.875Z,24.22
2022-08-17T20:29:14.659Z,24.08
2022-08-17T20:34:38.092Z,24.00
2022-08-17T20:40:00.001Z,23.88
2022-08-17T20:45:21.822Z,23.89
2022-08-17T20:50:52.619Z,23.86
2022-08-17T20:56:42.337Z,23.88
2022-08-17T21:02:17.503Z,24.04
2022-08-17T21:07:54.631Z,24.05
2022-08-17T21:13:29.912Z,24.05
2022-08-17T21:18:57.406Z,23.89
2022-08-17T21:24:37.832Z,23.76
2022-08-17T21:30:06.686Z,23.64
2022-08-17T21:35:50.803Z,23.88
2022-08-17T21:41:26.838Z,24.02
2022-08-17T21:46:51.072Z,23.89
2022-08-17T21:52:18.402Z,23.83
2022-08-17T21:57:41.769Z,23.81
2022-08-17T22:03:25.529Z,23.75
2022-08-17T22:09:00.948Z,23.88
2022-08-17T22:14:53.164Z,23.86
2022-08-17T22:20:18.278Z,23.87
2022-08-17T22:25:56.940Z,23.69
2022-08-17T22:31:21.705Z,23.60
2022-08-17T22:36:43.587Z,23.51
2022-08-17T22:42:12.177Z,23.13
2022-08-17T22:47:34.808Z,23.02
2022-08-17T22:53:00.965Z,22.86
2022-08-17T22:58:24.755Z,22.67
2022-08-17T23:03:55.750Z,22.80
2022-08-17T23:09:17.575Z,22.87
2022-08-17T23:14:40.923Z,22.74
2022-08-17T23:20:04.794Z,22.55
2022-08-17T23:25:32.131Z,22.62
2022-08-17T23:30:54.005Z,22.56
2022-08-17T23:36:16.583Z,22.59
2022-08-17T23:41:38.726Z,22.45
2022-08-17T23:47:00.982Z,22.37
2022-08-17T23:52:22.918Z,22.17
2022-08-17T23:57:44.837Z,22.04
